createdAt,value
2023-04-27T00:00:15.037Z,17.83
2023-04-27T00:01:16.938Z,17.80
2023-04-27T00:02:18.874Z,17.80
2023-04-27T00:03:21.266Z,17.79
2023-04-27T00:04:23.659Z,17.80
2023-04-27T00:05:25.860Z,17.80
2023-04-27T00:06:28.072Z,17.77
2023-04-27T00:07:29.917Z,17.77
2023-04-27T00:08:31.773Z,17.76
2023-04-27T00:09:33.637Z,17.75
2023-04-27T00:10:35.529Z,17.75
2023-04-27T00:11:37.377Z,17.74
2023-04-27T00:12:39.217Z,17.75
2023-04-27T00:13:41.108Z,17.76
2023-04-27T00:14:43.024Z,17.76
2023-04-27T00:15:44.845Z,17.76
2023-04-27T00:16:46.879Z,17.75
2023-04-27T00:17:48.751Z,17.74
2023-04-27T00:18:50.526Z,17.75
2023-04-27T00:19:52.310Z,17.75
2023-04-27T00:20:54.093Z,17.75
2023-04-27T00:21:55.911Z,17.75
2023-04-27T00:22:57.696Z,17.74
2023-04-27T00:23:59.492Z,17.74
2023-04-27T00:25:01.312Z,17.73
2023-04-27T00:26:03.098Z,17.73
2023-04-27T00:27:04.915Z,17.73
2023-04-27T00:28:06.703Z,17.71
2023-04-27T00:29:08.475Z,17.71
2023-04-27T00:30:10.373Z,17.71
2023-04-27T00:31:14.988Z,17.71
2023-04-27T00:32:16.807Z,17.69
2023-04-27T00:33:18.585Z,17.67
2023-04-27T00:34:20.378Z,17.67
2023-04-27T00:35:22.185Z,17.65
2023-04-27T00:36:23.999Z,17.64
2023-04-27T00:37:25.826Z,17.62
2023-04-27T00:38:27.682Z,17.59
2023-04-27T00:39:29.430Z,17.57
2023-04-27T00:40:31.236Z,17.57
2023-04-27T00:41:33.052Z,17.58
2023-04-27T00:42:34.872Z,17.58
2023-04-27T00:43:36.676Z,17.58
2023-04-27T00:44:39.794Z,17.58
2023-04-27T00:45:41.966Z,17.59
2023-04-27T00:46:43.913Z,17.58
2023-04-27T00:47:45.965Z,17.58
2023-04-27T00:48:47.839Z,17.59
2023-04-27T00:49:49.634Z,17.59
2023-04-27T00:50:51.443Z,17.58
2023-04-27T00:51:53.271Z,17.59
2023-04-27T00:52:55.099Z,17.59
2023-04-27T00:53:56.939Z,17.58
2023-04-27T00:54:58.769Z,17.57
2023-04-27T00:56:00.588Z,17.57
2023-04-27T00:57:02.395Z,17.54
2023-04-27T00:58:04.274Z,17.52
2023-04-27T00:59:06.042Z,17.51
2023-04-27T01:00:08.375Z,17.48
2023-04-27T01:01:10.563Z,17.44
2023-04-27T01:02:12.471Z,17.41
2023-04-27T01:03:14.474Z,17.38
2023-04-27T01:04:16.607Z,17.36
2023-04-27T01:05:18.655Z,17.34
2023-04-27T01:06:20.473Z,17.32
2023-04-27T01:07:22.283Z,17.31
2023-04-27T01:08:24.145Z,17.31
2023-04-27T01:09:26.077Z,17.30
2023-04-27T01:10:28.031Z,17.27
2023-04-27T01:11:29.845Z,17.25
2023-04-27T01:12:31.649Z,17.24
2023-04-27T01:13:33.503Z,17.24
2023-04-27T01:14:35.306Z,17.24
2023-04-27T01:15:37.112Z,17.21
2023-04-27T01:16:39.110Z,17.20
2023-04-27T01:17:41.205Z,17.18
2023-04-27T01:18:43.140Z,17.17
2023-04-27T01:19:44.944Z,17.17
2023-04-27T01:20:46.849Z,17.18
2023-04-27T01:21:48.659Z,17.16
2023-04-27T01:22:50.466Z,17.17
2023-04-27T01:23:52.329Z,17.15
2023-04-27T01:24:54.130Z,17.14
2023-04-27T01:25:55.954Z,17.13
2023-04-27T01:26:57.780Z,17.13
2023-04-27T01:27:59.599Z,17.13
2023-04-27T01:29:01.435Z,17.11
2023-04-27T01:30:03.374Z,17.13
2023-04-27T01:31:05.209Z,17.11
2023-04-27T01:32:06.984Z,17.10
2023-04-27T01:33:09.360Z,17.08
2023-04-27T01:34:11.225Z,17.08
2023-04-27T01:35:13.032Z,16.99
2023-04-27T01:36:14.959Z,16.99
2023-04-27T01:37:16.807Z,16.97
2023-04-27T01:38:18.621Z,16.94
2023-04-27T01:39:20.442Z,16.94
2023-04-27T01:40:22.735Z,16.90
2023-04-27T01:41:24.532Z,16.89
2023-04-27T01:42:26.343Z,16.86
2023-04-27T01:43:28.132Z,16.82
2023-04-27T01:44:29.978Z,16.79
2023-04-27T01:45:31.796Z,16.77
2023-04-27T01:46:33.651Z,16.73
2023-04-27T01:47:35.580Z,16.71
2023-04-27T01:48:37.410Z,16.66
2023-04-27T01:49:39.270Z,16.64
2023-04-27T01:50:41.090Z,16.60
2023-04-27T01:51:42.871Z,16.57
2023-04-27T01:52:44.691Z,16.57
2023-04-27T01:53:46.508Z,16.58
2023-04-27T01:54:48.351Z,16.57
2023-04-27T01:55:50.172Z,16.54
2023-04-27T01:56:51.978Z,16.57
2023-04-27T01:57:53.789Z,16.56
2023-04-27T01:58:55.613Z,16.57
2023-04-27T01:59:57.448Z,16.55
2023-04-27T02:00:59.263Z,16.53
2023-04-27T02:02:01.193Z,16.53
2023-04-27T02:03:03.123Z,16.53
2023-04-27T02:04:05.208Z,16.51
2023-04-27T02:05:07.360Z,16.52
2023-04-27T02:06:10.278Z,16.53
2023-04-27T02:07:12.083Z,16.53
2023-04-27T02:08:13.993Z,16.54
2023-04-27T02:09:15.961Z,16.54
2023-04-27T02:10:18.071Z,16.52
2023-04-27T02:11:19.883Z,16.52
2023-04-27T02:12:21.694Z,16.49
2023-04-27T02:13:23.507Z,16.45
2023-04-27T02:14:25.309Z,16.46
2023-04-27T02:15:27.166Z,16.47
2023-04-27T02:16:29.128Z,16.48
2023-04-27T02:17:30.994Z,16.50
2023-04-27T02:18:32.807Z,16.51
2023-04-27T02:19:34.631Z,16.51
2023-04-27T02:20:36.748Z,16.51
2023-04-27T02:21:38.557Z,16.50
2023-04-27T02:22:40.374Z,16.49
2023-04-27T02:23:42.199Z,16.47
2023-04-27T02:24:43.897Z,16.45
2023-04-27T02:25:45.714Z,16.47
2023-04-27T02:26:47.508Z,16.47
2023-04-27T02:27:49.323Z,16.47
2023-04-27T02:28:51.658Z,16.50
2023-04-27T02:29:53.885Z,16.51
2023-04-27T02:30:56.312Z,16.53
2023-04-27T02:31:58.634Z,16.52
2023-04-27T02:33:00.480Z,16.52
2023-04-27T02:34:02.451Z,16.52
2023-04-27T02:35:04.267Z,16.51
2023-04-27T02:36:06.219Z,16.52
2023-04-27T02:37:08.025Z,16.50
2023-04-27T02:38:09.832Z,16.49
2023-04-27T02:39:11.823Z,16.50
2023-04-27T02:40:14.115Z,16.48
2023-04-27T02:41:15.935Z,16.48
2023-04-27T02:42:17.762Z,16.45
2023-04-27T02:43:19.567Z,16.43
2023-04-27T02:44:21.448Z,16.42
2023-04-27T02:45:23.277Z,16.42
2023-04-27T02:46:25.364Z,16.40
2023-04-27T02:47:27.182Z,16.41
2023-04-27T02:48:28.967Z,16.40
2023-04-27T02:49:30.750Z,16.41
2023-04-27T02:50:32.669Z,16.42
2023-04-27T02:51:34.521Z,16.42
2023-04-27T02:52:36.334Z,16.43
2023-04-27T02:53:38.143Z,16.42
2023-04-27T02:54:39.926Z,16.42
2023-04-27T02:55:41.735Z,16.43
2023-04-27T02:56:43.597Z,16.42
2023-04-27T02:57:45.390Z,16.42
2023-04-27T02:58:47.197Z,16.40
2023-04-27T02:59:49.005Z,16.40
2023-04-27T03:00:50.980Z,16.38
2023-04-27T03:01:52.866Z,16.37
2023-04-27T03:02:54.770Z,16.35
2023-04-27T03:03:56.966Z,16.33
2023-04-27T03:04:58.884Z,16.34
2023-04-27T03:06:00.704Z,16.37
2023-04-27T03:07:02.549Z,16.38
2023-04-27T03:08:04.368Z,16.39
2023-04-27T03:09:06.160Z,16.41
2023-04-27T03:10:08.193Z,16.42
2023-04-27T03:11:10.043Z,16.43
2023-04-27T03:12:12.014Z,16.44
2023-04-27T03:13:13.790Z,16.45
2023-04-27T03:14:15.638Z,16.45
2023-04-27T03:15:17.437Z,16.43
2023-04-27T03:16:19.271Z,16.44
2023-04-27T03:17:21.055Z,16.43
2023-04-27T03:18:22.871Z,16.44
2023-04-27T03:19:24.692Z,16.45
2023-04-27T03:20:26.517Z,16.46
2023-04-27T03:21:28.307Z,16.48
2023-04-27T03:22:30.142Z,16.49
2023-04-27T03:23:31.956Z,16.49
2023-04-27T03:24:33.759Z,16.49
2023-04-27T03:25:35.595Z,16.49
2023-04-27T03:26:37.478Z,16.51
2023-04-27T03:27:39.463Z,16.51
2023-04-27T03:28:41.268Z,16.51
2023-04-27T03:29:43.086Z,16.52
2023-04-27T03:30:44.999Z,16.53
2023-04-27T03:31:46.851Z,16.56
2023-04-27T03:32:48.753Z,16.57
2023-04-27T03:33:50.541Z,16.57
2023-04-27T03:34:52.354Z,16.58
2023-04-27T03:35:54.148Z,16.59
2023-04-27T03:36:56.055Z,16.58
2023-04-27T03:37:57.902Z,16.57
2023-04-27T03:38:59.714Z,16.57
2023-04-27T03:40:01.537Z,16.57
2023-04-27T03:41:03.328Z,16.59
2023-04-27T03:42:05.160Z,16.60
2023-04-27T03:43:07.102Z,16.61
2023-04-27T03:44:08.928Z,16.63
2023-04-27T03:45:10.762Z,16.64
2023-04-27T03:46:14.393Z,16.65
2023-04-27T03:47:16.219Z,16.68
2023-04-27T03:48:18.043Z,16.69
2023-04-27T03:49:19.853Z,16.70
2023-04-27T03:50:21.745Z,16.73
2023-04-27T03:51:23.561Z,16.73
2023-04-27T03:52:25.374Z,16.75
2023-04-27T03:53:27.216Z,16.77
2023-04-27T03:54:29.015Z,16.78
2023-04-27T03:55:30.824Z,16.79
2023-04-27T03:56:32.735Z,16.81
2023-04-27T03:57:34.530Z,16.83
2023-04-27T03:58:36.367Z,16.84
2023-04-27T03:59:38.179Z,16.86
2023-04-27T04:00:39.976Z,16.88
2023-04-27T04:01:41.791Z,16.89
2023-04-27T04:02:43.682Z,16.90
2023-04-27T04:03:45.995Z,16.91
2023-04-27T04:04:48.079Z,16.93
2023-04-27T04:05:49.898Z,16.94
2023-04-27T04:06:51.796Z,16.96
2023-04-27T04:07:53.592Z,16.96
2023-04-27T04:08:55.432Z,16.97
2023-04-27T04:09:57.216Z,16.99
2023-04-27T04:10:59.138Z,16.99
2023-04-27T04:12:00.931Z,17.02
2023-04-27T04:13:02.739Z,17.02
2023-04-27T04:14:04.598Z,17.04
2023-04-27T04:15:06.418Z,17.04
2023-04-27T04:16:08.829Z,17.06
2023-04-27T04:17:11.294Z,17.08
2023-04-27T04:18:13.170Z,17.09
2023-04-27T04:19:15.339Z,17.10
2023-04-27T04:20:17.430Z,17.10
2023-04-27T04:21:19.274Z,17.13
2023-04-27T04:22:21.072Z,17.14
2023-04-27T04:23:22.864Z,17.15
2023-04-27T04:24:24.714Z,17.16
2023-04-27T04:25:26.539Z,17.18
2023-04-27T04:26:28.414Z,17.20
2023-04-27T04:27:30.222Z,17.22
2023-04-27T04:28:32.016Z,17.22
2023-04-27T04:29:33.870Z,17.25
2023-04-27T04:30:35.765Z,17.26
2023-04-27T04:31:37.596Z,17.28
2023-04-27T04:32:39.482Z,17.30
2023-04-27T04:33:41.832Z,17.31
2023-04-27T04:34:43.670Z,17.32
2023-04-27T04:35:45.491Z,17.32
2023-04-27T04:36:47.298Z,17.34
2023-04-27T04:37:49.103Z,17.35
2023-04-27T04:38:50.896Z,17.36
2023-04-27T04:39:52.742Z,17.38
2023-04-27T04:40:54.572Z,17.41
2023-04-27T04:41:56.372Z,17.42
2023-04-27T04:42:58.165Z,17.43
2023-04-27T04:43:59.994Z,17.45
2023-04-27T04:45:01.843Z,17.47
2023-04-27T04:46:03.797Z,17.49
2023-04-27T04:47:05.672Z,17.50
2023-04-27T04:48:07.485Z,17.52
2023-04-27T04:49:09.289Z,17.54
2023-04-27T04:50:11.874Z,17.56
2023-04-27T04:51:13.697Z,17.58
2023-04-27T04:52:15.514Z,17.60
2023-04-27T04:53:17.299Z,17.62
2023-04-27T04:54:19.118Z,17.65
2023-04-27T04:55:20.971Z,17.67
2023-04-27T04:56:22.788Z,17.69
2023-04-27T04:57:24.599Z,17.72
2023-04-27T04:58:26.425Z,17.75
2023-04-27T04:59:29.875Z,17.79
2023-04-27T05:00:31.903Z,17.82
2023-04-27T05:01:33.883Z,17.85
2023-04-27T05:02:35.870Z,17.88
2023-04-27T05:03:37.993Z,17.91
2023-04-27T05:04:40.053Z,17.95
2023-04-27T05:05:42.161Z,17.99
2023-04-27T05:06:43.978Z,18.10
2023-04-27T05:07:45.778Z,18.10
2023-04-27T05:08:47.597Z,18.18
2023-04-27T05:09:49.628Z,18.22
2023-04-27T05:10:51.896Z,18.28
2023-04-27T05:11:53.711Z,18.32
2023-04-27T05:12:55.504Z,18.39
2023-04-27T05:13:57.308Z,18.46
2023-04-27T05:14:59.131Z,18.52
2023-04-27T05:16:01.062Z,18.60
2023-04-27T05:17:02.963Z,18.65
2023-04-27T05:18:04.820Z,18.71
2023-04-27T05:19:06.639Z,18.76
2023-04-27T05:20:09.377Z,18.76
2023-04-27T05:21:11.220Z,18.83
2023-04-27T05:22:13.038Z,18.89
2023-04-27T05:23:14.867Z,18.95
2023-04-27T05:24:16.676Z,18.99
2023-04-27T05:25:18.535Z,19.05
2023-04-27T05:26:21.208Z,19.09
2023-04-27T05:27:22.906Z,19.18
2023-04-27T05:28:24.710Z,19.22
2023-04-27T05:29:26.545Z,19.23
2023-04-27T05:30:28.558Z,19.24
2023-04-27T05:31:30.402Z,19.29
2023-04-27T05:32:32.639Z,19.32
2023-04-27T05:33:34.445Z,19.33
2023-04-27T05:34:36.260Z,19.33
2023-04-27T05:35:38.051Z,19.36
2023-04-27T05:36:39.889Z,19.37
2023-04-27T05:37:41.710Z,19.44
2023-04-27T05:38:43.532Z,19.47
2023-04-27T05:39:45.362Z,19.49
2023-04-27T05:40:47.175Z,19.52
2023-04-27T05:41:49.139Z,19.55
2023-04-27T05:42:51.027Z,19.57
2023-04-27T05:43:52.836Z,19.57
2023-04-27T05:44:54.641Z,19.59
2023-04-27T05:45:57.200Z,19.60
2023-04-27T05:46:59.487Z,19.61
2023-04-27T05:48:01.307Z,19.61
2023-04-27T05:49:03.223Z,19.63
2023-04-27T05:50:05.217Z,19.63
2023-04-27T05:51:07.024Z,19.65
2023-04-27T05:52:08.869Z,19.69
2023-04-27T05:53:10.745Z,19.69
2023-04-27T05:54:12.644Z,19.69
2023-04-27T05:55:16.315Z,19.70
2023-04-27T05:56:18.561Z,19.70
2023-04-27T05:57:20.407Z,19.68
2023-04-27T05:58:22.202Z,19.68
2023-04-27T05:59:24.061Z,19.69
2023-04-27T06:00:26.340Z,19.69
2023-04-27T06:01:28.142Z,19.71
2023-04-27T06:02:30.104Z,19.73
2023-04-27T06:03:32.233Z,19.77
2023-04-27T06:04:34.283Z,19.79
2023-04-27T06:05:36.371Z,19.79
2023-04-27T06:06:38.348Z,19.80
2023-04-27T06:07:40.244Z,19.79
2023-04-27T06:08:42.029Z,19.77
2023-04-27T06:09:43.846Z,19.79
2023-04-27T06:10:45.874Z,19.81
2023-04-27T06:11:47.674Z,19.83
2023-04-27T06:12:49.549Z,19.85
2023-04-27T06:13:51.358Z,19.90
2023-04-27T06:14:53.161Z,19.90
2023-04-27T06:15:55.022Z,19.92
2023-04-27T06:16:56.978Z,19.97
2023-04-27T06:17:58.831Z,20.00
2023-04-27T06:19:00.610Z,20.05
2023-04-27T06:20:02.399Z,20.06
2023-04-27T06:21:04.248Z,20.07
2023-04-27T06:22:06.086Z,20.13
2023-04-27T06:23:07.927Z,20.15
2023-04-27T06:24:09.746Z,20.18
2023-04-27T06:25:11.558Z,20.21
2023-04-27T06:26:13.512Z,20.25
2023-04-27T06:27:15.307Z,20.26
2023-04-27T06:28:17.155Z,20.29
2023-04-27T06:29:18.981Z,20.33
2023-04-27T06:30:20.814Z,20.35
2023-04-27T06:31:22.733Z,20.35
2023-04-27T06:32:24.661Z,20.35
2023-04-27T06:33:26.490Z,20.39
2023-04-27T06:34:28.350Z,20.44
2023-04-27T06:35:30.150Z,20.49
2023-04-27T06:36:31.954Z,20.56
2023-04-27T06:37:33.747Z,20.57
2023-04-27T06:38:35.622Z,20.61
2023-04-27T06:39:37.445Z,20.67
2023-04-27T06:40:39.270Z,20.71
2023-04-27T06:41:42.461Z,20.74
2023-04-27T06:42:44.277Z,20.80
2023-04-27T06:43:46.116Z,20.85
2023-04-27T06:44:47.922Z,20.91
2023-04-27T06:45:49.783Z,20.93
2023-04-27T06:46:51.815Z,20.98
2023-04-27T06:47:53.715Z,21.02
2023-04-27T06:48:55.575Z,21.06
2023-04-27T06:49:57.442Z,21.14
2023-04-27T06:50:59.339Z,21.14
2023-04-27T06:52:01.169Z,21.13
2023-04-27T06:53:02.990Z,21.16
2023-04-27T06:54:04.852Z,21.19
2023-04-27T06:55:06.655Z,21.21
2023-04-27T06:56:08.653Z,21.27
2023-04-27T06:57:10.477Z,21.31
2023-04-27T06:58:12.341Z,21.32
2023-04-27T06:59:14.246Z,21.34
2023-04-27T07:00:16.322Z,21.36
2023-04-27T07:01:18.188Z,21.39
2023-04-27T07:02:19.971Z,21.40
2023-04-27T07:03:22.042Z,21.42
2023-04-27T07:04:24.108Z,21.45
2023-04-27T07:05:25.938Z,21.47
2023-04-27T07:06:27.747Z,21.49
2023-04-27T07:07:29.557Z,21.54
2023-04-27T07:08:31.400Z,21.57
2023-04-27T07:09:33.587Z,21.62
2023-04-27T07:10:35.760Z,21.66
2023-04-27T07:11:37.586Z,21.70
2023-04-27T07:12:39.439Z,21.75
2023-04-27T07:13:41.254Z,21.79
2023-04-27T07:14:43.125Z,21.84
2023-04-27T07:15:44.957Z,21.85
2023-04-27T07:16:46.834Z,21.91
2023-04-27T07:17:48.692Z,21.94
2023-04-27T07:18:50.666Z,21.98
2023-04-27T07:19:52.521Z,22.01
2023-04-27T07:20:54.448Z,21.99
2023-04-27T07:21:56.283Z,22.00
2023-04-27T07:22:58.102Z,22.03
2023-04-27T07:23:59.907Z,22.07
2023-04-27T07:25:01.737Z,22.11
2023-04-27T07:26:03.647Z,22.14
2023-04-27T07:27:05.447Z,22.17
2023-04-27T07:28:07.291Z,22.18
2023-04-27T07:29:22.871Z,22.21
2023-04-27T07:30:13.119Z,22.23
2023-04-27T07:31:18.017Z,22.26
2023-04-27T07:32:19.849Z,22.30
2023-04-27T07:33:21.641Z,22.30
2023-04-27T07:34:23.455Z,22.31
2023-04-27T07:35:25.298Z,22.33
2023-04-27T07:36:27.220Z,22.37
2023-04-27T07:37:29.079Z,22.37
2023-04-27T07:38:30.850Z,22.39
2023-04-27T07:39:32.661Z,22.42
2023-04-27T07:40:34.550Z,22.45
2023-04-27T07:41:36.627Z,22.47
2023-04-27T07:42:38.468Z,22.50
2023-04-27T07:43:40.262Z,22.53
2023-04-27T07:44:42.081Z,22.53
2023-04-27T07:45:43.989Z,22.55
2023-04-27T07:46:46.016Z,22.55
2023-04-27T07:47:47.898Z,22.58
2023-04-27T07:48:49.741Z,22.59
2023-04-27T07:49:51.641Z,22.58
2023-04-27T07:50:53.553Z,22.56
2023-04-27T07:51:55.369Z,22.57
2023-04-27T07:52:57.180Z,22.59
2023-04-27T07:53:58.992Z,22.58
2023-04-27T07:55:00.799Z,22.59
2023-04-27T07:56:03.151Z,22.59
2023-04-27T07:57:05.041Z,22.58
2023-04-27T07:58:06.862Z,22.59
2023-04-27T07:59:08.659Z,22.60
2023-04-27T08:00:11.073Z,22.59
2023-04-27T08:01:13.002Z,22.57
2023-04-27T08:02:18.978Z,22.54
2023-04-27T08:03:18.612Z,22.55
2023-04-27T08:04:20.779Z,22.59
2023-04-27T08:05:23.161Z,22.59
2023-04-27T08:06:26.065Z,22.60
2023-04-27T08:07:28.240Z,22.61
2023-04-27T08:08:30.185Z,22.62
2023-04-27T08:09:32.001Z,22.64
2023-04-27T08:10:33.919Z,22.64
2023-04-27T08:11:35.769Z,22.64
2023-04-27T08:12:37.571Z,22.65
2023-04-27T08:13:39.449Z,22.66
2023-04-27T08:14:41.280Z,22.65
2023-04-27T08:15:43.062Z,22.65
2023-04-27T08:16:44.933Z,22.62
2023-04-27T08:17:46.739Z,22.67
2023-04-27T08:18:48.562Z,22.67
2023-04-27T08:19:50.394Z,22.69
2023-04-27T08:20:52.201Z,22.70
2023-04-27T08:21:54.065Z,22.72
2023-04-27T08:22:55.904Z,22.72
2023-04-27T08:23:57.739Z,22.75
2023-04-27T08:24:59.598Z,22.76
2023-04-27T08:26:01.386Z,22.77
2023-04-27T08:27:03.238Z,22.77
2023-04-27T08:28:05.051Z,22.76
2023-04-27T08:29:15.732Z,22.77
2023-04-27T08:30:11.103Z,22.79
2023-04-27T08:31:13.182Z,22.79
2023-04-27T08:32:15.075Z,22.79
2023-04-27T08:33:16.925Z,22.81
2023-04-27T08:34:18.820Z,22.81
2023-04-27T08:35:20.645Z,22.82
2023-04-27T08:36:22.451Z,22.83
2023-04-27T08:37:24.311Z,22.81
2023-04-27T08:38:26.130Z,22.81
2023-04-27T08:39:27.931Z,22.80
2023-04-27T08:40:29.771Z,22.79
2023-04-27T08:41:31.642Z,22.79
2023-04-27T08:42:33.538Z,22.79
2023-04-27T08:43:35.351Z,22.79
2023-04-27T08:44:37.166Z,22.79
2023-04-27T08:45:38.963Z,22.80
2023-04-27T08:46:40.822Z,22.80
2023-04-27T08:47:44.035Z,22.79
2023-04-27T08:48:46.044Z,22.78
2023-04-27T08:49:47.857Z,22.78
2023-04-27T08:50:49.768Z,22.78
2023-04-27T08:51:51.601Z,22.79
2023-04-27T08:52:53.551Z,22.80
2023-04-27T08:53:55.518Z,22.79
2023-04-27T08:54:57.350Z,22.80
2023-04-27T08:55:59.203Z,22.81
2023-04-27T08:57:01.042Z,22.81
2023-04-27T08:58:02.873Z,22.80
2023-04-27T08:59:04.708Z,22.79
2023-04-27T09:00:06.609Z,22.80
2023-04-27T09:01:09.825Z,22.81
2023-04-27T09:02:11.723Z,22.82
2023-04-27T09:03:13.755Z,22.80
2023-04-27T09:04:16.098Z,22.79
2023-04-27T09:05:18.294Z,22.78
2023-04-27T09:06:20.422Z,22.77
2023-04-27T09:07:22.232Z,22.78
2023-04-27T09:08:24.079Z,22.80
2023-04-27T09:09:25.898Z,22.81
2023-04-27T09:10:27.680Z,22.81
2023-04-27T09:11:29.514Z,22.79
2023-04-27T09:12:31.333Z,22.80
2023-04-27T09:13:33.169Z,22.80
2023-04-27T09:14:34.983Z,22.79
2023-04-27T09:15:36.779Z,22.80
2023-04-27T09:16:38.689Z,22.80
2023-04-27T09:17:40.657Z,22.80
2023-04-27T09:18:42.464Z,22.80
2023-04-27T09:19:44.271Z,22.78
2023-04-27T09:20:46.109Z,22.78
2023-04-27T09:21:47.914Z,22.77
2023-04-27T09:22:49.780Z,22.78
2023-04-27T09:23:51.724Z,22.77
2023-04-27T09:24:53.607Z,22.75
2023-04-27T09:25:55.716Z,22.74
2023-04-27T09:27:00.131Z,22.74
2023-04-27T09:28:01.494Z,22.72
2023-04-27T09:29:03.276Z,22.70
2023-04-27T09:30:05.289Z,22.69
2023-04-27T09:31:07.148Z,22.69
2023-04-27T09:32:09.036Z,22.68
2023-04-27T09:33:10.854Z,22.65
2023-04-27T09:34:12.678Z,22.67
2023-04-27T09:35:14.535Z,22.66
2023-04-27T09:36:16.669Z,22.64
2023-04-27T09:37:18.504Z,22.64
2023-04-27T09:38:20.324Z,22.63
2023-04-27T09:39:22.155Z,22.62
2023-04-27T09:40:24.184Z,22.63
2023-04-27T09:41:25.961Z,22.62
2023-04-27T09:42:27.883Z,22.61
2023-04-27T09:43:29.743Z,22.60
2023-04-27T09:44:31.598Z,22.61
2023-04-27T09:45:33.429Z,22.60
2023-04-27T09:46:35.651Z,22.60
2023-04-27T09:47:37.472Z,22.60
2023-04-27T09:48:39.374Z,22.62
2023-04-27T09:49:41.207Z,22.60
2023-04-27T09:50:44.392Z,22.62
2023-04-27T09:51:46.185Z,22.63
2023-04-27T09:52:48.002Z,22.64
2023-04-27T09:53:49.836Z,22.63
2023-04-27T09:54:51.684Z,22.65
2023-04-27T09:55:53.493Z,22.65
2023-04-27T09:56:55.404Z,22.65
2023-04-27T09:57:57.272Z,22.65
2023-04-27T09:59:01.849Z,22.66
2023-04-27T10:00:03.707Z,22.67
2023-04-27T10:01:05.575Z,22.69
2023-04-27T10:02:21.001Z,22.68
2023-04-27T10:03:11.127Z,22.69
2023-04-27T10:04:13.078Z,22.71
2023-04-27T10:05:15.268Z,22.70
2023-04-27T10:06:17.135Z,22.71
2023-04-27T10:07:18.967Z,22.70
2023-04-27T10:08:20.758Z,22.71
2023-04-27T10:09:23.902Z,22.71
2023-04-27T10:10:25.872Z,22.71
2023-04-27T10:11:27.680Z,22.71
2023-04-27T10:12:29.542Z,22.72
2023-04-27T10:13:31.344Z,22.72
2023-04-27T10:14:33.128Z,22.72
2023-04-27T10:15:35.068Z,22.72
2023-04-27T10:16:37.021Z,22.72
2023-04-27T10:17:38.831Z,22.72
2023-04-27T10:18:40.596Z,22.74
2023-04-27T10:19:42.416Z,22.74
2023-04-27T10:20:44.238Z,22.73
2023-04-27T10:21:46.066Z,22.77
2023-04-27T10:22:47.852Z,22.78
2023-04-27T11:46:59.229Z,22.77
2023-04-27T11:48:01.010Z,22.78
2023-04-27T11:49:02.966Z,22.77
2023-04-27T11:50:04.883Z,22.77
2023-04-27T11:51:06.677Z,22.78
2023-04-27T11:52:08.626Z,22.80
2023-04-27T11:53:10.397Z,22.81
2023-04-27T11:54:12.387Z,22.82
2023-04-27T11:55:14.427Z,22.82
2023-04-27T11:56:16.434Z,22.81
2023-04-27T11:57:18.465Z,22.83
2023-04-27T11:58:20.301Z,22.84
2023-04-27T11:59:22.128Z,22.86
2023-04-27T12:00:24.021Z,22.87
2023-04-27T12:01:37.002Z,22.87
2023-04-27T12:02:29.707Z,22.87
2023-04-27T12:03:31.999Z,22.89
2023-04-27T12:04:34.172Z,22.89
2023-04-27T12:05:36.186Z,22.89
2023-04-27T12:06:38.419Z,22.89
2023-04-27T12:07:40.331Z,22.89
2023-04-27T12:08:42.139Z,22.90
2023-04-27T12:09:44.000Z,22.90
2023-04-27T12:10:45.833Z,22.90
2023-04-27T12:11:47.622Z,22.90
2023-04-27T12:12:49.708Z,22.92
2023-04-27T12:13:51.531Z,22.93
2023-04-27T12:14:53.356Z,22.92
2023-04-27T12:15:55.219Z,22.93
2023-04-27T12:16:57.168Z,22.94
2023-04-27T12:17:58.991Z,22.94
2023-04-27T12:19:00.776Z,22.94
2023-04-27T12:20:02.622Z,22.95
2023-04-27T12:21:05.414Z,22.94
2023-04-27T12:22:08.036Z,22.93
2023-04-27T12:23:09.896Z,22.93
2023-04-27T12:24:12.050Z,22.94
2023-04-27T12:25:14.209Z,22.93
2023-04-27T12:26:16.526Z,22.93
2023-04-27T12:27:18.323Z,22.94
2023-04-27T12:28:20.151Z,22.93
2023-04-27T12:29:21.961Z,22.92
2023-04-27T12:30:23.916Z,22.91
2023-04-27T12:31:27.694Z,22.92
2023-04-27T12:32:29.330Z,22.91
2023-04-27T12:33:31.234Z,22.92
2023-04-27T12:34:33.037Z,22.90
2023-04-27T12:35:34.856Z,22.89
2023-04-27T12:36:37.060Z,22.88
2023-04-27T12:37:38.861Z,22.88
2023-04-27T12:38:40.710Z,22.88
2023-04-27T12:39:42.559Z,22.88
2023-04-27T12:40:44.769Z,22.86
2023-04-27T12:41:46.578Z,22.86
2023-04-27T12:42:48.375Z,22.86
2023-04-27T12:43:50.242Z,22.85
2023-04-27T12:44:52.071Z,22.83
2023-04-27T12:45:54.048Z,22.83
2023-04-27T12:46:55.817Z,22.83
2023-04-27T12:49:01.294Z,22.83
2023-04-27T12:50:03.205Z,22.83
2023-04-27T12:51:05.020Z,22.82
2023-04-27T12:52:06.805Z,22.82
2023-04-27T12:53:08.673Z,22.82
2023-04-27T12:54:10.474Z,22.82
2023-04-27T12:55:24.863Z,22.82
2023-04-27T12:56:16.005Z,22.82
2023-04-27T12:57:17.701Z,22.80
2023-04-27T12:58:19.506Z,22.80
2023-04-27T12:59:21.357Z,22.81
2023-04-27T13:00:23.278Z,22.78
2023-04-27T13:01:25.170Z,22.79
2023-04-27T13:02:27.221Z,22.77
2023-04-27T13:03:29.511Z,22.75
2023-04-27T13:04:31.723Z,22.74
2023-04-27T13:05:33.635Z,22.73
2023-04-27T13:06:35.563Z,22.72
2023-04-27T13:07:37.363Z,22.70
2023-04-27T13:08:39.199Z,22.70
2023-04-27T13:09:41.048Z,22.67
2023-04-27T13:10:42.958Z,22.67
2023-04-27T13:11:44.775Z,22.67
2023-04-27T13:12:46.610Z,22.67
2023-04-27T13:13:48.419Z,22.65
2023-04-27T13:14:50.262Z,22.67
2023-04-27T13:15:52.122Z,22.67
2023-04-27T13:16:54.137Z,22.66
2023-04-27T13:17:55.941Z,22.64
2023-04-27T13:18:57.740Z,22.63
2023-04-27T13:19:59.589Z,22.62
2023-04-27T13:21:01.576Z,22.63
2023-04-27T13:22:03.393Z,22.62
2023-04-27T13:23:05.193Z,22.61
2023-04-27T13:24:06.999Z,22.59
2023-04-27T13:25:08.896Z,22.59
2023-04-27T13:26:11.227Z,22.57
2023-04-27T13:27:13.060Z,22.56
2023-04-27T13:28:14.941Z,22.54
2023-04-27T13:29:16.720Z,22.52
2023-04-27T13:30:18.670Z,22.48
2023-04-27T13:31:20.538Z,22.47
2023-04-27T13:32:22.600Z,22.46
2023-04-27T13:33:24.697Z,22.45
2023-04-27T13:34:26.564Z,22.42
2023-04-27T13:35:28.449Z,22.41
2023-04-27T13:36:30.363Z,22.39
2023-04-27T13:37:32.180Z,22.36
2023-04-27T13:38:33.985Z,22.35
2023-04-27T13:39:35.809Z,22.33
2023-04-27T13:40:37.646Z,22.32
2023-04-27T13:41:39.450Z,22.30
2023-04-27T13:42:41.299Z,22.28
2023-04-27T13:43:43.162Z,22.28
2023-04-27T13:44:44.949Z,22.26
2023-04-27T13:45:46.804Z,22.26
2023-04-27T13:46:48.620Z,22.24
2023-04-27T13:47:50.496Z,22.22
2023-04-27T13:48:52.528Z,22.21
2023-04-27T13:49:54.344Z,22.20
2023-04-27T13:50:56.359Z,22.18
2023-04-27T13:51:58.224Z,22.18
2023-04-27T13:53:00.026Z,22.17
2023-04-27T13:54:01.833Z,22.16
2023-04-27T13:55:03.792Z,22.13
2023-04-27T13:56:05.941Z,22.13
2023-04-27T13:57:07.758Z,22.12
2023-04-27T13:58:09.578Z,22.12
2023-04-27T13:59:11.367Z,22.10
2023-04-27T14:00:13.688Z,22.09
2023-04-27T14:01:15.569Z,22.07
2023-04-27T14:02:17.387Z,22.05
2023-04-27T14:03:19.356Z,22.05
2023-04-27T14:04:21.637Z,22.04
2023-04-27T14:05:23.548Z,22.01
2023-04-27T14:06:25.398Z,22.01
2023-04-27T14:07:27.199Z,22.00
2023-04-27T14:08:29.013Z,21.98
2023-04-27T14:09:30.872Z,21.95
2023-04-27T14:10:32.805Z,21.94
2023-04-27T14:11:45.062Z,21.94
2023-04-27T14:12:38.283Z,21.93
2023-04-27T14:13:40.257Z,21.92
2023-04-27T14:14:42.111Z,21.91
2023-04-27T14:15:43.929Z,21.89
2023-04-27T14:16:45.808Z,21.89
2023-04-27T14:17:47.640Z,21.88
2023-04-27T14:18:49.552Z,21.87
2023-04-27T14:19:51.345Z,21.86
2023-04-27T14:20:53.161Z,21.86
2023-04-27T14:21:54.988Z,21.87
2023-04-27T14:22:58.337Z,21.89
2023-04-27T14:24:00.492Z,21.89
2023-04-27T14:25:02.377Z,21.88
2023-04-27T14:26:04.790Z,21.89
2023-04-27T14:27:06.595Z,21.87
2023-04-27T14:28:08.471Z,21.88
2023-04-27T14:29:10.321Z,21.87
2023-04-27T14:30:12.548Z,21.86
2023-04-27T14:31:14.357Z,21.86
2023-04-27T14:32:16.334Z,21.85
2023-04-27T14:33:18.241Z,21.85
2023-04-27T14:34:21.554Z,21.86
2023-04-27T14:35:23.518Z,21.84
2023-04-27T14:36:25.343Z,21.85
2023-04-27T14:37:27.190Z,21.84
2023-04-27T14:38:29.008Z,21.85
2023-04-27T14:39:30.857Z,21.84
2023-04-27T14:40:32.756Z,21.84
2023-04-27T14:41:34.568Z,21.86